sensor_id;sensor_type;location;lat;lon;timestamp;P1;durP1;ratioP1;P2;durP2;ratioP2
7173;SDS011;3628;48.654;8.932;2022-12-22T00:02:02;3.23;;;1.83;;
7173;SDS011;3628;48.654;8.932;2022-12-22T00:04:51;3.47;;;1.87;;
7173;SDS011;3628;48.654;8.932;2022-12-22T00:07:35;1.53;;;1.43;;
7173;SDS011;3628;48.654;8.932;2022-12-22T00:10:19;1.97;;;1.40;;
7173;SDS011;3628;48.654;8.932;2022-12-22T00:13:04;3.33;;;1.60;;
7173;SDS011;3628;48.654;8.932;2022-12-22T00:15:48;1.83;;;1.50;;
7173;SDS011;3628;48.654;8.932;2022-12-22T00:18:32;1.70;;;1.60;;
7173;SDS011;3628;48.654;8.932;2022-12-22T00:21:16;1.40;;;1.30;;
7173;SDS011;3628;48.654;8.932;2022-12-22T00:24:00;3.33;;;1.40;;
7173;SDS011;3628;48.654;8.932;2022-12-22T00:26:45;1.53;;;1.20;;
7173;SDS011;3628;48.654;8.932;2022-12-22T00:29:36;2.30;;;1.20;;
7173;SDS011;3628;48.654;8.932;2022-12-22T00:32:23;2.57;;;1.20;;
7173;SDS011;3628;48.654;8.932;2022-12-22T00:35:11;2.00;;;1.47;;
7173;SDS011;3628;48.654;8.932;2022-12-22T00:37:55;2.93;;;1.27;;
7173;SDS011;3628;48.654;8.932;2022-12-22T00:40:40;1.40;;;1.30;;
7173;SDS011;3628;48.654;8.932;2022-12-22T00:43:24;1.30;;;1.20;;
7173;SDS011;3628;48.654;8.932;2022-12-22T00:46:08;1.53;;;1.10;;
7173;SDS011;3628;48.654;8.932;2022-12-22T00:48:54;1.43;;;1.17;;
7173;SDS011;3628;48.654;8.932;2022-12-22T00:51:39;2.47;;;1.40;;
7173;SDS011;3628;48.654;8.932;2022-12-22T00:54:23;1.60;;;1.30;;
7173;SDS011;3628;48.654;8.932;2022-12-22T00:57:10;1.43;;;1.33;;
7173;SDS011;3628;48.654;8.932;2022-12-22T01:00:00;1.60;;;1.27;;
7173;SDS011;3628;48.654;8.932;2022-12-22T01:02:45;2.33;;;1.80;;
7173;SDS011;3628;48.654;8.932;2022-12-22T01:05:29;2.57;;;1.50;;
7173;SDS011;3628;48.654;8.932;2022-12-22T01:08:13;2.10;;;1.83;;
7173;SDS011;3628;48.654;8.932;2022-12-22T01:10:57;2.20;;;1.83;;
7173;SDS011;3628;48.654;8.932;2022-12-22T01:13:41;2.27;;;1.70;;
7173;SDS011;3628;48.654;8.932;2022-12-22T01:16:25;2.43;;;1.90;;
7173;SDS011;3628;48.654;8.932;2022-12-22T01:19:09;1.77;;;1.67;;
7173;SDS011;3628;48.654;8.932;2022-12-22T01:21:53;3.37;;;1.60;;
7173;SDS011;3628;48.654;8.932;2022-12-22T01:24:38;2.13;;;1.93;;
7173;SDS011;3628;48.654;8.932;2022-12-22T01:27:22;2.00;;;1.80;;
7173;SDS011;3628;48.654;8.932;2022-12-22T01:30:07;3.53;;;1.83;;
7173;SDS011;3628;48.654;8.932;2022-12-22T01:32:53;1.83;;;1.63;;
7173;SDS011;3628;48.654;8.932;2022-12-22T01:35:37;3.17;;;1.90;;
7173;SDS011;3628;48.654;8.932;2022-12-22T01:38:21;2.63;;;1.73;;
7173;SDS011;3628;48.654;8.932;2022-12-22T01:41:05;2.67;;;1.93;;
7173;SDS011;3628;48.654;8.932;2022-12-22T01:43:55;2.67;;;2.20;;
7173;SDS011;3628;48.654;8.932;2022-12-22T01:46:43;2.10;;;1.90;;
7173;SDS011;3628;48.654;8.932;2022-12-22T01:49:33;3.13;;;2.20;;
7173;SDS011;3628;48.654;8.932;2022-12-22T01:52:21;2.20;;;2.00;;
7173;SDS011;3628;48.654;8.932;2022-12-22T01:55:10;2.23;;;1.70;;
7173;SDS011;3628;48.654;8.932;2022-12-22T01:57:57;2.47;;;2.00;;
7173;SDS011;3628;48.654;8.932;2022-12-22T02:00:41;2.30;;;2.10;;
7173;SDS011;3628;48.654;8.932;2022-12-22T02:03:29;3.03;;;1.90;;
7173;SDS011;3628;48.654;8.932;2022-12-22T02:18:03;3.27;;;1.90;;
7173;SDS011;3628;48.654;8.932;2022-12-22T02:20:56;1.57;;;1.47;;
7173;SDS011;3628;48.654;8.932;2022-12-22T02:26:49;1.80;;;1.50;;
7173;SDS011;3628;48.654;8.932;2022-12-22T02:29:38;2.53;;;1.43;;
7173;SDS011;3628;48.654;8.932;2022-12-22T02:32:26;1.33;;;1.10;;
7173;SDS011;3628;48.654;8.932;2022-12-22T02:35:11;1.83;;;1.33;;
7173;SDS011;3628;48.654;8.932;2022-12-22T02:41:15;1.53;;;1.20;;
7173;SDS011;3628;48.654;8.932;2022-12-22T02:50:22;2.17;;;0.97;;
7173;SDS011;3628;48.654;8.932;2022-12-22T02:53:18;4.20;;;1.20;;
7173;SDS011;3628;48.654;8.932;2022-12-22T02:56:04;1.37;;;1.10;;
7173;SDS011;3628;48.654;8.932;2022-12-22T02:58:51;3.00;;;1.27;;
7173;SDS011;3628;48.654;8.932;2022-12-22T03:01:35;1.47;;;0.90;;
7173;SDS011;3628;48.654;8.932;2022-12-22T03:04:20;0.97;;;0.80;;
7173;SDS011;3628;48.654;8.932;2022-12-22T03:07:04;0.73;;;0.73;;
7173;SDS011;3628;48.654;8.932;2022-12-22T03:09:48;2.03;;;1.00;;
7173;SDS011;3628;48.654;8.932;2022-12-22T03:12:32;1.20;;;0.90;;
7173;SDS011;3628;48.654;8.932;2022-12-22T03:15:16;1.33;;;0.90;;
7173;SDS011;3628;48.654;8.932;2022-12-22T03:18:01;2.20;;;0.80;;
7173;SDS011;3628;48.654;8.932;2022-12-22T03:20:47;0.97;;;0.70;;
7173;SDS011;3628;48.654;8.932;2022-12-22T03:23:31;0.63;;;0.63;;
7173;SDS011;3628;48.654;8.932;2022-12-22T03:26:15;1.27;;;1.10;;
7173;SDS011;3628;48.654;8.932;2022-12-22T03:28:41;0.90;;;0.67;;
7173;SDS011;3628;48.654;8.932;2022-12-22T03:31:07;0.60;;;0.57;;
7173;SDS011;3628;48.654;8.932;2022-12-22T03:33:32;3.70;;;0.60;;
7173;SDS011;3628;48.654;8.932;2022-12-22T03:35:58;1.07;;;0.50;;
7173;SDS011;3628;48.654;8.932;2022-12-22T03:38:24;0.70;;;0.60;;
7173;SDS011;3628;48.654;8.932;2022-12-22T03:40:50;1.23;;;0.60;;
7173;SDS011;3628;48.654;8.932;2022-12-22T03:43:16;0.40;;;0.40;;
7173;SDS011;3628;48.654;8.932;2022-12-22T03:46:01;1.10;;;0.50;;
7173;SDS011;3628;48.654;8.932;2022-12-22T03:48:39;2.03;;;0.40;;
7173;SDS011;3628;48.654;8.932;2022-12-22T03:51:04;0.43;;;0.33;;
7173;SDS011;3628;48.654;8.932;2022-12-22T03:53:30;1.67;;;0.37;;
7173;SDS011;3628;48.654;8.932;2022-12-22T03:55:56;0.70;;;0.43;;
7173;SDS011;3628;48.654;8.932;2022-12-22T03:58:21;1.03;;;0.33;;
7173;SDS011;3628;48.654;8.932;2022-12-22T04:00:47;1.40;;;0.50;;
7173;SDS011;3628;48.654;8.932;2022-12-22T04:03:12;0.43;;;0.33;;
7173;SDS011;3628;48.654;8.932;2022-12-22T04:05:38;0.23;;;0.23;;
7173;SDS011;3628;48.654;8.932;2022-12-22T04:08:04;1.53;;;0.50;;
7173;SDS011;3628;48.654;8.932;2022-12-22T04:10:30;0.63;;;0.30;;
7173;SDS011;3628;48.654;8.932;2022-12-22T04:13:14;1.23;;;0.43;;
7173;SDS011;3628;48.654;8.932;2022-12-22T04:15:40;2.20;;;0.50;;
7173;SDS011;3628;48.654;8.932;2022-12-22T04:18:05;0.40;;;0.40;;
7173;SDS011;3628;48.654;8.932;2022-12-22T04:20:31;0.43;;;0.30;;
7173;SDS011;3628;48.654;8.932;2022-12-22T04:22:57;0.33;;;0.30;;
7173;SDS011;3628;48.654;8.932;2022-12-22T04:25:23;2.17;;;0.40;;
7173;SDS011;3628;48.654;8.932;2022-12-22T04:27:49;1.07;;;0.50;;
7173;SDS011;3628;48.654;8.932;2022-12-22T04:30:15;0.40;;;0.40;;
7173;SDS011;3628;48.654;8.932;2022-12-22T04:32:41;0.40;;;0.37;;
7173;SDS011;3628;48.654;8.932;2022-12-22T04:35:06;0.43;;;0.33;;
7173;SDS011;3628;48.654;8.932;2022-12-22T04:37:32;1.90;;;0.47;;
7173;SDS011;3628;48.654;8.932;2022-12-22T04:39:58;0.50;;;0.40;;
7173;SDS011;3628;48.654;8.932;2022-12-22T04:42:24;1.13;;;0.40;;
7173;SDS011;3628;48.654;8.932;2022-12-22T04:44:50;1.20;;;0.40;;
7173;SDS011;3628;48.654;8.932;2022-12-22T04:47:16;1.60;;;0.60;;
7173;SDS011;3628;48.654;8.932;2022-12-22T04:49:41;0.93;;;0.50;;
7173;SDS011;3628;48.654;8.932;2022-12-22T04:52:07;3.60;;;0.60;;
7173;SDS011;3628;48.654;8.932;2022-12-22T04:54:33;2.07;;;0.50;;
7173;SDS011;3628;48.654;8.932;2022-12-22T04:56:59;0.50;;;0.33;;
7173;SDS011;3628;48.654;8.932;2022-12-22T04:59:25;3.47;;;0.60;;
7173;SDS011;3628;48.654;8.932;2022-12-22T05:01:50;0.87;;;0.40;;
7173;SDS011;3628;48.654;8.932;2022-12-22T05:04:16;1.63;;;0.40;;
7173;SDS011;3628;48.654;8.932;2022-12-22T05:06:41;1.17;;;0.30;;
7173;SDS011;3628;48.654;8.932;2022-12-22T05:09:08;1.33;;;0.60;;
7173;SDS011;3628;48.654;8.932;2022-12-22T05:11:34;0.83;;;0.40;;
7173;SDS011;3628;48.654;8.932;2022-12-22T05:14:00;1.87;;;0.60;;
7173;SDS011;3628;48.654;8.932;2022-12-22T05:16:25;0.70;;;0.57;;
7173;SDS011;3628;48.654;8.932;2022-12-22T05:18:51;2.57;;;0.50;;
7173;SDS011;3628;48.654;8.932;2022-12-22T05:21:20;1.10;;;0.40;;
7173;SDS011;3628;48.654;8.932;2022-12-22T05:23:46;6.67;;;0.80;;
7173;SDS011;3628;48.654;8.932;2022-12-22T05:26:13;2.97;;;0.70;;
7173;SDS011;3628;48.654;8.932;2022-12-22T05:28:40;2.03;;;0.60;;
7173;SDS011;3628;48.654;8.932;2022-12-22T05:31:07;7.00;;;0.70;;
7173;SDS011;3628;48.654;8.932;2022-12-22T05:33:40;1.30;;;0.70;;
7173;SDS011;3628;48.654;8.932;2022-12-22T05:36:06;3.17;;;0.67;;
7173;SDS011;3628;48.654;8.932;2022-12-22T05:38:32;2.83;;;0.60;;
7173;SDS011;3628;48.654;8.932;2022-12-22T05:40:57;1.80;;;0.63;;
7173;SDS011;3628;48.654;8.932;2022-12-22T05:43:23;3.17;;;0.80;;
7173;SDS011;3628;48.654;8.932;2022-12-22T05:45:48;2.43;;;0.80;;
7173;SDS011;3628;48.654;8.932;2022-12-22T05:48:14;2.67;;;0.57;;
7173;SDS011;3628;48.654;8.932;2022-12-22T05:50:40;1.60;;;0.63;;
7173;SDS011;3628;48.654;8.932;2022-12-22T05:53:06;2.13;;;0.93;;
7173;SDS011;3628;48.654;8.932;2022-12-22T05:55:32;2.93;;;0.83;;
7173;SDS011;3628;48.654;8.932;2022-12-22T05:57:58;1.23;;;0.80;;
7173;SDS011;3628;48.654;8.932;2022-12-22T06:00:28;3.13;;;1.10;;
7173;SDS011;3628;48.654;8.932;2022-12-22T06:02:54;3.63;;;1.20;;
7173;SDS011;3628;48.654;8.932;2022-12-22T06:05:20;3.77;;;0.93;;
7173;SDS011;3628;48.654;8.932;2022-12-22T06:07:46;2.37;;;1.00;;
7173;SDS011;3628;48.654;8.932;2022-12-22T06:10:12;4.70;;;1.10;;
7173;SDS011;3628;48.654;8.932;2022-12-22T06:12:38;4.77;;;0.97;;
7173;SDS011;3628;48.654;8.932;2022-12-22T06:15:08;3.57;;;1.13;;
7173;SDS011;3628;48.654;8.932;2022-12-22T06:17:36;3.23;;;1.00;;
7173;SDS011;3628;48.654;8.932;2022-12-22T06:20:02;2.53;;;0.90;;
7173;SDS011;3628;48.654;8.932;2022-12-22T06:22:28;4.70;;;0.93;;
7173;SDS011;3628;48.654;8.932;2022-12-22T06:24:54;5.10;;;1.07;;
7173;SDS011;3628;48.654;8.932;2022-12-22T06:27:19;3.37;;;0.90;;
7173;SDS011;3628;48.654;8.932;2022-12-22T06:29:45;5.53;;;1.10;;
7173;SDS011;3628;48.654;8.932;2022-12-22T06:32:10;5.00;;;1.23;;
7173;SDS011;3628;48.654;8.932;2022-12-22T06:34:36;3.17;;;1.07;;
7173;SDS011;3628;48.654;8.932;2022-12-22T06:37:01;5.30;;;1.07;;
7173;SDS011;3628;48.654;8.932;2022-12-22T06:39:27;4.17;;;1.30;;
7173;SDS011;3628;48.654;8.932;2022-12-22T06:41:53;5.63;;;1.43;;
7173;SDS011;3628;48.654;8.932;2022-12-22T06:44:37;6.67;;;1.50;;
7173;SDS011;3628;48.654;8.932;2022-12-22T06:47:02;2.73;;;1.10;;
7173;SDS011;3628;48.654;8.932;2022-12-22T06:49:28;4.63;;;1.03;;
7173;SDS011;3628;48.654;8.932;2022-12-22T06:51:53;7.57;;;1.23;;
7173;SDS011;3628;48.654;8.932;2022-12-22T06:54:19;3.90;;;1.00;;
7173;SDS011;3628;48.654;8.932;2022-12-22T06:56:44;2.80;;;1.20;;
7173;SDS011;3628;48.654;8.932;2022-12-22T06:59:10;5.07;;;1.30;;
7173;SDS011;3628;48.654;8.932;2022-12-22T07:01:36;3.53;;;1.03;;
7173;SDS011;3628;48.654;8.932;2022-12-22T07:04:01;7.30;;;1.40;;
7173;SDS011;3628;48.654;8.932;2022-12-22T07:06:27;3.17;;;1.00;;
7173;SDS011;3628;48.654;8.932;2022-12-22T07:08:52;5.17;;;1.10;;
7173;SDS011;3628;48.654;8.932;2022-12-22T07:11:18;4.77;;;1.07;;
7173;SDS011;3628;48.654;8.932;2022-12-22T07:13:43;5.00;;;1.10;;
7173;SDS011;3628;48.654;8.932;2022-12-22T07:16:09;3.53;;;1.30;;
7173;SDS011;3628;48.654;8.932;2022-12-22T07:18:36;5.47;;;1.10;;
7173;SDS011;3628;48.654;8.932;2022-12-22T07:21:04;4.47;;;0.97;;
7173;SDS011;3628;48.654;8.932;2022-12-22T07:23:32;3.70;;;1.03;;
7173;SDS011;3628;48.654;8.932;2022-12-22T07:25:58;3.93;;;1.10;;
7173;SDS011;3628;48.654;8.932;2022-12-22T07:28:24;6.10;;;1.13;;
7173;SDS011;3628;48.654;8.932;2022-12-22T07:30:50;6.50;;;1.20;;
7173;SDS011;3628;48.654;8.932;2022-12-22T07:33:16;4.97;;;1.10;;
7173;SDS011;3628;48.654;8.932;2022-12-22T07:35:42;6.57;;;1.07;;
7173;SDS011;3628;48.654;8.932;2022-12-22T07:38:08;7.27;;;1.40;;
7173;SDS011;3628;48.654;8.932;2022-12-22T07:40:34;7.70;;;1.50;;
7173;SDS011;3628;48.654;8.932;2022-12-22T07:42:59;6.73;;;1.30;;
7173;SDS011;3628;48.654;8.932;2022-12-22T07:45:26;6.43;;;1.53;;
7173;SDS011;3628;48.654;8.932;2022-12-22T07:47:57;7.27;;;1.70;;
7173;SDS011;3628;48.654;8.932;2022-12-22T07:50:24;5.83;;;1.47;;
7173;SDS011;3628;48.654;8.932;2022-12-22T07:52:56;3.77;;;1.40;;
7173;SDS011;3628;48.654;8.932;2022-12-22T07:55:27;4.90;;;1.20;;
7173;SDS011;3628;48.654;8.932;2022-12-22T07:57:54;2.70;;;1.23;;
7173;SDS011;3628;48.654;8.932;2022-12-22T08:00:20;3.93;;;1.20;;
7173;SDS011;3628;48.654;8.932;2022-12-22T08:02:57;5.23;;;1.00;;
7173;SDS011;3628;48.654;8.932;2022-12-22T08:05:23;3.10;;;1.00;;
7173;SDS011;3628;48.654;8.932;2022-12-22T08:07:50;4.33;;;1.10;;
7173;SDS011;3628;48.654;8.932;2022-12-22T08:10:17;5.17;;;0.90;;
7173;SDS011;3628;48.654;8.932;2022-12-22T08:12:44;5.23;;;0.97;;
7173;SDS011;3628;48.654;8.932;2022-12-22T08:15:10;5.83;;;1.20;;
7173;SDS011;3628;48.654;8.932;2022-12-22T08:17:36;4.20;;;1.27;;
7173;SDS011;3628;48.654;8.932;2022-12-22T08:20:02;3.57;;;0.97;;
7173;SDS011;3628;48.654;8.932;2022-12-22T08:22:28;3.37;;;1.30;;
7173;SDS011;3628;48.654;8.932;2022-12-22T08:24:54;5.57;;;1.67;;
7173;SDS011;3628;48.654;8.932;2022-12-22T08:27:22;3.10;;;1.20;;
7173;SDS011;3628;48.654;8.932;2022-12-22T08:30:04;6.70;;;1.13;;
7173;SDS011;3628;48.654;8.932;2022-12-22T08:32:31;4.73;;;1.37;;
7173;SDS011;3628;48.654;8.932;2022-12-22T08:34:57;4.63;;;1.07;;
7173;SDS011;3628;48.654;8.932;2022-12-22T08:37:23;3.70;;;1.10;;
7173;SDS011;3628;48.654;8.932;2022-12-22T08:39:56;5.00;;;1.37;;
7173;SDS011;3628;48.654;8.932;2022-12-22T08:42:26;4.03;;;1.20;;
7173;SDS011;3628;48.654;8.932;2022-12-22T08:44:52;2.83;;;1.10;;
7173;SDS011;3628;48.654;8.932;2022-12-22T08:47:21;6.93;;;1.43;;
7173;SDS011;3628;48.654;8.932;2022-12-22T08:49:47;4.27;;;1.07;;
7173;SDS011;3628;48.654;8.932;2022-12-22T08:52:13;4.63;;;1.00;;
7173;SDS011;3628;48.654;8.932;2022-12-22T08:54:39;5.30;;;0.97;;
7173;SDS011;3628;48.654;8.932;2022-12-22T08:57:05;3.30;;;0.93;;
7173;SDS011;3628;48.654;8.932;2022-12-22T08:59:31;4.60;;;1.00;;
7173;SDS011;3628;48.654;8.932;2022-12-22T09:01:56;1.73;;;0.70;;
7173;SDS011;3628;48.654;8.932;2022-12-22T09:04:22;4.47;;;0.93;;
7173;SDS011;3628;48.654;8.932;2022-12-22T09:06:52;4.70;;;1.17;;
7173;SDS011;3628;48.654;8.932;2022-12-22T09:09:18;6.20;;;1.10;;
7173;SDS011;3628;48.654;8.932;2022-12-22T09:11:44;4.13;;;1.00;;
7173;SDS011;3628;48.654;8.932;2022-12-22T09:14:10;5.10;;;1.40;;
7173;SDS011;3628;48.654;8.932;2022-12-22T09:16:36;3.63;;;1.40;;
7173;SDS011;3628;48.654;8.932;2022-12-22T09:19:03;6.13;;;1.20;;
7173;SDS011;3628;48.654;8.932;2022-12-22T09:21:30;4.77;;;1.10;;
7173;SDS011;3628;48.654;8.932;2022-12-22T09:23:56;6.13;;;1.23;;
7173;SDS011;3628;48.654;8.932;2022-12-22T09:26:23;5.63;;;1.20;;
7173;SDS011;3628;48.654;8.932;2022-12-22T09:28:50;5.90;;;1.30;;
7173;SDS011;3628;48.654;8.932;2022-12-22T09:31:16;5.70;;;1.43;;
7173;SDS011;3628;48.654;8.932;2022-12-22T09:33:43;3.73;;;0.83;;
7173;SDS011;3628;48.654;8.932;2022-12-22T09:36:10;3.03;;;0.80;;
7173;SDS011;3628;48.654;8.932;2022-12-22T09:38:38;4.20;;;1.00;;
7173;SDS011;3628;48.654;8.932;2022-12-22T09:41:08;6.97;;;1.73;;
7173;SDS011;3628;48.654;8.932;2022-12-22T09:43:40;5.10;;;1.53;;
7173;SDS011;3628;48.654;8.932;2022-12-22T09:46:10;3.83;;;1.00;;
7173;SDS011;3628;48.654;8.932;2022-12-22T09:48:44;5.13;;;1.63;;
7173;SDS011;3628;48.654;8.932;2022-12-22T09:51:11;6.80;;;2.30;;
7173;SDS011;3628;48.654;8.932;2022-12-22T09:53:38;4.20;;;1.30;;
7173;SDS011;3628;48.654;8.932;2022-12-22T09:56:05;7.43;;;1.23;;
7173;SDS011;3628;48.654;8.932;2022-12-22T09:58:35;1.93;;;0.87;;
7173;SDS011;3628;48.654;8.932;2022-12-22T10:08:42;2.43;;;1.27;;
7173;SDS011;3628;48.654;8.932;2022-12-22T10:11:12;3.43;;;0.90;;
7173;SDS011;3628;48.654;8.932;2022-12-22T10:13:42;3.33;;;0.90;;
7173;SDS011;3628;48.654;8.932;2022-12-22T10:16:19;2.10;;;1.00;;
7173;SDS011;3628;48.654;8.932;2022-12-22T10:19:09;2.97;;;0.87;;
7173;SDS011;3628;48.654;8.932;2022-12-22T10:21:36;3.07;;;1.00;;
7173;SDS011;3628;48.654;8.932;2022-12-22T10:24:25;1.67;;;0.90;;
7173;SDS011;3628;48.654;8.932;2022-12-22T10:26:55;3.47;;;0.87;;
7173;SDS011;3628;48.654;8.932;2022-12-22T10:29:23;3.57;;;0.93;;
7173;SDS011;3628;48.654;8.932;2022-12-22T10:32:04;3.40;;;1.23;;
7173;SDS011;3628;48.654;8.932;2022-12-22T10:34:36;4.07;;;0.90;;
7173;SDS011;3628;48.654;8.932;2022-12-22T10:37:02;3.33;;;0.90;;
7173;SDS011;3628;48.654;8.932;2022-12-22T10:39:30;5.37;;;1.03;;
7173;SDS011;3628;48.654;8.932;2022-12-22T10:41:59;1.23;;;0.80;;
7173;SDS011;3628;48.654;8.932;2022-12-22T10:44:32;4.10;;;0.87;;
7173;SDS011;3628;48.654;8.932;2022-12-22T10:47:09;2.77;;;0.73;;
7173;SDS011;3628;48.654;8.932;2022-12-22T10:49:38;3.37;;;1.07;;
7173;SDS011;3628;48.654;8.932;2022-12-22T10:54:45;3.73;;;1.00;;
7173;SDS011;3628;48.654;8.932;2022-12-22T10:59:56;2.90;;;1.10;;
7173;SDS011;3628;48.654;8.932;2022-12-22T11:02:35;1.37;;;0.60;;
7173;SDS011;3628;48.654;8.932;2022-12-22T11:05:03;1.63;;;0.70;;
7173;SDS011;3628;48.654;8.932;2022-12-22T11:07:36;2.03;;;0.57;;
7173;SDS011;3628;48.654;8.932;2022-12-22T11:10:14;5.13;;;1.00;;
7173;SDS011;3628;48.654;8.932;2022-12-22T11:15:26;3.17;;;0.80;;
7173;SDS011;3628;48.654;8.932;2022-12-22T11:25:50;2.07;;;0.57;;
7173;SDS011;3628;48.654;8.932;2022-12-22T11:29:10;1.23;;;0.83;;
7173;SDS011;3628;48.654;8.932;2022-12-22T11:34:54;2.10;;;0.87;;
7173;SDS011;3628;48.654;8.932;2022-12-22T11:40:07;1.17;;;0.40;;
7173;SDS011;3628;48.654;8.932;2022-12-22T11:45:40;2.70;;;0.80;;
7173;SDS011;3628;48.654;8.932;2022-12-22T11:48:27;2.30;;;0.67;;
7173;SDS011;3628;48.654;8.932;2022-12-22T11:51:07;2.50;;;0.60;;
7173;SDS011;3628;48.654;8.932;2022-12-22T11:56:45;2.80;;;0.80;;
7173;SDS011;3628;48.654;8.932;2022-12-22T11:59:42;3.47;;;0.57;;
7173;SDS011;3628;48.654;8.932;2022-12-22T12:10:51;1.70;;;0.60;;
7173;SDS011;3628;48.654;8.932;2022-12-22T12:15:49;0.83;;;0.40;;
7173;SDS011;3628;48.654;8.932;2022-12-22T12:18:27;0.67;;;0.30;;
7173;SDS011;3628;48.654;8.932;2022-12-22T12:26:31;1.23;;;0.73;;
7173;SDS011;3628;48.654;8.932;2022-12-22T12:29:17;1.60;;;0.47;;
7173;SDS011;3628;48.654;8.932;2022-12-22T12:31:47;0.90;;;0.40;;
7173;SDS011;3628;48.654;8.932;2022-12-22T12:34:15;1.03;;;0.47;;
7173;SDS011;3628;48.654;8.932;2022-12-22T12:44:44;1.47;;;0.40;;
7173;SDS011;3628;48.654;8.932;2022-12-22T12:47:24;0.73;;;0.43;;
7173;SDS011;3628;48.654;8.932;2022-12-22T12:55:21;1.77;;;0.60;;
7173;SDS011;3628;48.654;8.932;2022-12-22T12:57:53;2.27;;;0.53;;
7173;SDS011;3628;48.654;8.932;2022-12-22T13:02:58;1.53;;;0.50;;
7173;SDS011;3628;48.654;8.932;2022-12-22T13:05:53;0.80;;;0.40;;
7173;SDS011;3628;48.654;8.932;2022-12-22T13:08:29;1.30;;;0.50;;
7173;SDS011;3628;48.654;8.932;2022-12-22T13:15:47;0.70;;;0.47;;
7173;SDS011;3628;48.654;8.932;2022-12-22T13:23:30;4.20;;;1.03;;
7173;SDS011;3628;48.654;8.932;2022-12-22T13:26:11;1.70;;;0.60;;
7173;SDS011;3628;48.654;8.932;2022-12-22T13:28:40;2.73;;;0.83;;
7173;SDS011;3628;48.654;8.932;2022-12-22T13:31:21;2.27;;;0.87;;
7173;SDS011;3628;48.654;8.932;2022-12-22T13:36:43;1.30;;;0.60;;
7173;SDS011;3628;48.654;8.932;2022-12-22T13:39:11;4.43;;;0.70;;
7173;SDS011;3628;48.654;8.932;2022-12-22T13:41:39;3.00;;;1.00;;
7173;SDS011;3628;48.654;8.932;2022-12-22T13:44:09;2.80;;;0.80;;
7173;SDS011;3628;48.654;8.932;2022-12-22T13:46:40;2.63;;;0.60;;
7173;SDS011;3628;48.654;8.932;2022-12-22T13:49:07;1.70;;;0.93;;
7173;SDS011;3628;48.654;8.932;2022-12-22T13:51:36;2.27;;;0.80;;
7173;SDS011;3628;48.654;8.932;2022-12-22T13:54:10;1.97;;;0.63;;
7173;SDS011;3628;48.654;8.932;2022-12-22T13:56:56;2.80;;;0.83;;
7173;SDS011;3628;48.654;8.932;2022-12-22T14:01:59;5.33;;;1.20;;
7173;SDS011;3628;48.654;8.932;2022-12-22T14:04:39;4.03;;;0.93;;
7173;SDS011;3628;48.654;8.932;2022-12-22T14:07:13;3.90;;;1.27;;
7173;SDS011;3628;48.654;8.932;2022-12-22T14:09:43;1.93;;;0.97;;
7173;SDS011;3628;48.654;8.932;2022-12-22T14:12:11;4.00;;;1.10;;
7173;SDS011;3628;48.654;8.932;2022-12-22T14:14:43;4.00;;;1.37;;
7173;SDS011;3628;48.654;8.932;2022-12-22T14:17:21;4.60;;;1.23;;
7173;SDS011;3628;48.654;8.932;2022-12-22T14:19:50;4.50;;;1.07;;
7173;SDS011;3628;48.654;8.932;2022-12-22T14:22:19;2.87;;;1.10;;
7173;SDS011;3628;48.654;8.932;2022-12-22T14:24:49;3.07;;;1.20;;
7173;SDS011;3628;48.654;8.932;2022-12-22T14:30:22;4.40;;;1.00;;
7173;SDS011;3628;48.654;8.932;2022-12-22T14:32:51;3.40;;;1.00;;
7173;SDS011;3628;48.654;8.932;2022-12-22T14:37:48;3.93;;;1.57;;
7173;SDS011;3628;48.654;8.932;2022-12-22T14:42:57;3.83;;;1.20;;
7173;SDS011;3628;48.654;8.932;2022-12-22T14:45:25;4.70;;;1.23;;
7173;SDS011;3628;48.654;8.932;2022-12-22T14:47:51;5.40;;;1.37;;
7173;SDS011;3628;48.654;8.932;2022-12-22T14:50:18;4.47;;;1.60;;
7173;SDS011;3628;48.654;8.932;2022-12-22T14:55:28;4.27;;;1.20;;
7173;SDS011;3628;48.654;8.932;2022-12-22T15:00:34;5.77;;;1.50;;
7173;SDS011;3628;48.654;8.932;2022-12-22T15:03:05;3.73;;;1.00;;
7173;SDS011;3628;48.654;8.932;2022-12-22T15:08:54;5.23;;;1.67;;
7173;SDS011;3628;48.654;8.932;2022-12-22T15:11:35;3.00;;;1.30;;
7173;SDS011;3628;48.654;8.932;2022-12-22T15:14:02;2.93;;;1.57;;
7173;SDS011;3628;48.654;8.932;2022-12-22T15:16:29;5.03;;;1.63;;
7173;SDS011;3628;48.654;8.932;2022-12-22T15:18:55;5.47;;;1.13;;
7173;SDS011;3628;48.654;8.932;2022-12-22T15:21:21;5.67;;;1.20;;
7173;SDS011;3628;48.654;8.932;2022-12-22T15:23:46;7.67;;;1.30;;
7173;SDS011;3628;48.654;8.932;2022-12-22T15:26:12;4.53;;;0.93;;
7173;SDS011;3628;48.654;8.932;2022-12-22T15:28:39;3.33;;;1.13;;
7173;SDS011;3628;48.654;8.932;2022-12-22T15:31:10;2.63;;;1.10;;
7173;SDS011;3628;48.654;8.932;2022-12-22T15:33:38;3.80;;;1.10;;
7173;SDS011;3628;48.654;8.932;2022-12-22T15:36:05;3.17;;;1.27;;
7173;SDS011;3628;48.654;8.932;2022-12-22T15:38:33;3.70;;;1.23;;
7173;SDS011;3628;48.654;8.932;2022-12-22T15:40:59;2.63;;;1.17;;
7173;SDS011;3628;48.654;8.932;2022-12-22T15:43:24;4.90;;;1.33;;
7173;SDS011;3628;48.654;8.932;2022-12-22T15:45:50;4.43;;;1.43;;
7173;SDS011;3628;48.654;8.932;2022-12-22T15:48:17;5.33;;;1.47;;
7173;SDS011;3628;48.654;8.932;2022-12-22T15:50:48;4.30;;;1.20;;
7173;SDS011;3628;48.654;8.932;2022-12-22T15:53:15;5.20;;;1.40;;
7173;SDS011;3628;48.654;8.932;2022-12-22T15:55:46;4.60;;;1.20;;
7173;SDS011;3628;48.654;8.932;2022-12-22T15:58:16;5.10;;;1.20;;
7173;SDS011;3628;48.654;8.932;2022-12-22T16:00:44;3.27;;;0.90;;
7173;SDS011;3628;48.654;8.932;2022-12-22T16:03:10;6.87;;;1.40;;
7173;SDS011;3628;48.654;8.932;2022-12-22T16:05:37;7.50;;;1.77;;
7173;SDS011;3628;48.654;8.932;2022-12-22T16:08:03;6.70;;;2.40;;
7173;SDS011;3628;48.654;8.932;2022-12-22T16:10:29;7.27;;;1.47;;
7173;SDS011;3628;48.654;8.932;2022-12-22T16:12:58;8.20;;;1.80;;
7173;SDS011;3628;48.654;8.932;2022-12-22T16:15:27;4.40;;;1.67;;
7173;SDS011;3628;48.654;8.932;2022-12-22T16:17:57;5.80;;;1.43;;
7173;SDS011;3628;48.654;8.932;2022-12-22T16:20:24;6.80;;;2.50;;
7173;SDS011;3628;48.654;8.932;2022-12-22T16:22:52;5.60;;;1.43;;
7173;SDS011;3628;48.654;8.932;2022-12-22T16:25:19;5.80;;;2.40;;
7173;SDS011;3628;48.654;8.932;2022-12-22T16:27:48;7.63;;;1.87;;
7173;SDS011;3628;48.654;8.932;2022-12-22T16:30:19;7.57;;;1.83;;
7173;SDS011;3628;48.654;8.932;2022-12-22T16:32:47;6.03;;;2.70;;
7173;SDS011;3628;48.654;8.932;2022-12-22T16:35:20;9.57;;;1.90;;
7173;SDS011;3628;48.654;8.932;2022-12-22T16:37:47;7.37;;;3.57;;
7173;SDS011;3628;48.654;8.932;2022-12-22T16:40:14;7.97;;;1.90;;
7173;SDS011;3628;48.654;8.932;2022-12-22T16:42:50;8.27;;;2.20;;
7173;SDS011;3628;48.654;8.932;2022-12-22T16:45:24;5.97;;;1.93;;
7173;SDS011;3628;48.654;8.932;2022-12-22T16:51:23;10.50;;;2.80;;
7173;SDS011;3628;48.654;8.932;2022-12-22T16:53:53;10.43;;;2.40;;
7173;SDS011;3628;48.654;8.932;2022-12-22T16:56:20;10.07;;;2.67;;
7173;SDS011;3628;48.654;8.932;2022-12-22T16:58:47;6.70;;;2.40;;
7173;SDS011;3628;48.654;8.932;2022-12-22T17:01:27;10.97;;;2.80;;
7173;SDS011;3628;48.654;8.932;2022-12-22T17:04:11;7.10;;;2.40;;
7173;SDS011;3628;48.654;8.932;2022-12-22T17:06:39;9.50;;;1.97;;
7173;SDS011;3628;48.654;8.932;2022-12-22T17:09:06;17.03;;;5.57;;
7173;SDS011;3628;48.654;8.932;2022-12-22T17:11:37;11.33;;;3.37;;
7173;SDS011;3628;48.654;8.932;2022-12-22T17:14:11;13.00;;;5.37;;
7173;SDS011;3628;48.654;8.932;2022-12-22T17:16:39;6.33;;;2.13;;
7173;SDS011;3628;48.654;8.932;2022-12-22T17:19:05;18.60;;;4.97;;
7173;SDS011;3628;48.654;8.932;2022-12-22T17:21:32;15.27;;;4.00;;
7173;SDS011;3628;48.654;8.932;2022-12-22T17:23:58;11.63;;;3.73;;
7173;SDS011;3628;48.654;8.932;2022-12-22T17:26:27;12.43;;;3.30;;
7173;SDS011;3628;48.654;8.932;2022-12-22T17:28:54;6.77;;;2.50;;
7173;SDS011;3628;48.654;8.932;2022-12-22T17:31:23;12.37;;;2.90;;
7173;SDS011;3628;48.654;8.932;2022-12-22T17:33:50;10.33;;;2.57;;
7173;SDS011;3628;48.654;8.932;2022-12-22T17:36:21;12.93;;;3.23;;
7173;SDS011;3628;48.654;8.932;2022-12-22T17:38:58;14.03;;;2.40;;
7173;SDS011;3628;48.654;8.932;2022-12-22T17:41:25;10.60;;;2.43;;
7173;SDS011;3628;48.654;8.932;2022-12-22T17:43:50;12.50;;;2.60;;
7173;SDS011;3628;48.654;8.932;2022-12-22T17:46:17;5.90;;;1.73;;
7173;SDS011;3628;48.654;8.932;2022-12-22T17:48:44;9.63;;;2.50;;
7173;SDS011;3628;48.654;8.932;2022-12-22T17:51:17;11.73;;;2.37;;
7173;SDS011;3628;48.654;8.932;2022-12-22T17:53:50;6.13;;;2.33;;